Time;durP1;ratioP1;P1;durP2;ratioP2;P2;SDS_P1;SDS_P2;PMS_P1;PMS_P2;Temp;Humidity;BMP_temperature;BMP_pressure;BME280_temperature;BME280_humidity;BME280_pressure;Samples;Min_cycle;Max_cycle;Signal;HPM_P1;HPM_P2
2022/10/05 00:01:51;;;;;;;9.68;8.02;;;17.30;99.90;;;;;;4956879;28;92555;-72
2022/10/05 00:04:21;;;;;;;10.10;6.68;;;17.20;99.90;;;;;;4958212;28;91729;-72
2022/10/05 00:07:05;;;;;;;9.10;7.00;;;17.20;99.90;;;;;;4957415;28;93479;-72
2022/10/05 00:09:33;;;;;;;8.75;6.25;;;17.30;99.90;;;;;;4956591;28;92993;-72
2022/10/05 00:12:12;;;;;;;9.55;7.13;;;17.20;99.90;;;;;;4971652;28;94856;-72
2022/10/05 00:14:40;;;;;;;10.13;7.05;;;17.20;99.90;;;;;;4955657;28;92386;-72
2022/10/05 00:17:14;;;;;;;10.38;7.25;;;17.20;99.90;;;;;;4956176;28;93263;-72
2022/10/05 00:19:41;;;;;;;9.50;8.00;;;17.20;99.90;;;;;;4956284;28;95920;-72
2022/10/05 00:22:10;;;;;;;8.77;7.25;;;17.20;99.90;;;;;;4956054;28;100200;-72
2022/10/05 00:24:37;;;;;;;8.05;6.47;;;17.20;99.90;;;;;;4939912;28;92475;-72
2022/10/05 00:27:19;;;;;;;10.05;7.18;;;17.20;99.90;;;;;;4956978;28;93183;-72
2022/10/05 00:29:48;;;;;;;8.70;6.20;;;17.30;99.90;;;;;;4957703;28;92941;-72
2022/10/05 00:32:15;;;;;;;7.72;6.50;;;17.20;99.90;;;;;;4957501;28;92436;-72
2022/10/05 00:34:43;;;;;;;9.30;6.35;;;17.20;99.90;;;;;;4956295;28;92562;-72
2022/10/05 00:37:12;;;;;;;9.23;7.15;;;17.20;99.90;;;;;;4954704;28;98076;-72
2022/10/05 00:39:41;;;;;;;7.65;6.72;;;17.20;99.90;;;;;;4971772;28;98124;-72
2022/10/05 00:42:29;;;;;;;9.02;7.13;;;17.20;99.90;;;;;;4939960;28;92430;-72
2022/10/05 00:45:31;;;;;;;7.60;6.40;;;17.30;99.90;;;;;;4956356;28;92482;-72
2022/10/05 00:48:37;;;;;;;8.88;8.10;;;17.20;99.90;;;;;;4915814;28;95999;-72
2022/10/05 00:51:24;;;;;;;7.13;6.43;;;17.20;99.90;;;;;;4957183;28;92933;-72
2022/10/05 00:54:32;;;;;;;6.15;5.25;;;17.20;99.90;;;;;;4972220;28;92455;-72
2022/10/05 00:57:33;;;;;;;8.05;5.85;;;17.20;99.90;;;;;;4955879;28;91716;-73
2022/10/05 01:00:13;;;;;;;7.22;6.53;;;17.10;99.90;;;;;;4957239;28;93295;-72
2022/10/05 01:03:19;;;;;;;8.13;5.97;;;17.10;99.90;;;;;;4971773;28;95714;-72
2022/10/05 01:06:27;;;;;;;6.97;5.30;;;17.10;99.90;;;;;;4898652;28;94832;-72
2022/10/05 01:09:24;;;;;;;6.28;5.55;;;17.20;99.90;;;;;;4894724;28;93198;-72
2022/10/05 01:12:02;;;;;;;7.55;5.70;;;17.20;99.90;;;;;;4954140;28;95939;-72
2022/10/05 01:15:16;;;;;;;6.55;5.95;;;17.10;99.90;;;;;;4971512;28;95462;-72
2022/10/05 01:17:58;;;;;;;7.45;5.97;;;17.20;99.90;;;;;;4933542;28;92595;-72
2022/10/05 01:21:04;;;;;;;6.13;5.53;;;17.10;99.90;;;;;;4955424;28;92590;-72
2022/10/05 01:23:37;;;;;;;6.35;5.75;;;17.20;99.90;;;;;;4955054;28;95985;-72
2022/10/05 01:26:37;;;;;;;7.70;6.70;;;17.10;99.90;;;;;;4956784;28;93075;-72
2022/10/05 01:29:19;;;;;;;8.00;6.13;;;17.10;99.90;;;;;;4956845;28;92488;-72
2022/10/05 01:32:04;;;;;;;9.70;5.88;;;17.10;99.90;;;;;;4955578;28;93099;-72
2022/10/05 01:34:51;;;;;;;7.45;6.85;;;17.10;99.90;;;;;;4953329;28;98085;-72
2022/10/05 01:37:40;;;;;;;8.57;6.70;;;17.10;99.90;;;;;;4938878;28;97890;-72
2022/10/05 01:40:23;;;;;;;7.13;6.43;;;17.10;99.90;;;;;;4955601;28;92461;-72
2022/10/05 01:42:53;;;;;;;7.67;6.23;;;17.10;99.90;;;;;;4939030;28;92465;-72
2022/10/05 01:45:25;;;;;;;7.18;6.10;;;17.00;99.90;;;;;;4956377;28;94168;-72
2022/10/05 01:48:21;;;;;;;8.60;6.82;;;17.10;99.90;;;;;;4955353;28;92962;-72
2022/10/05 01:51:05;;;;;;;8.38;6.97;;;17.10;99.90;;;;;;4953579;28;92474;-72
2022/10/05 01:53:32;;;;;;;7.57;6.68;;;17.00;99.90;;;;;;4971520;28;91724;-72
2022/10/05 01:56:30;;;;;;;8.18;7.20;;;16.90;99.90;;;;;;4956490;28;92963;-72
2022/10/05 01:58:57;;;;;;;9.50;7.13;;;17.00;99.90;;;;;;4971279;28;95452;-72
2022/10/05 02:01:30;;;;;;;9.82;7.65;;;16.90;99.90;;;;;;4953888;28;94965;-72
2022/10/05 02:04:12;;;;;;;10.13;7.55;;;17.00;99.90;;;;;;4954971;28;92548;-72
2022/10/05 02:06:59;;;;;;;8.50;6.63;;;17.00;99.90;;;;;;4971168;28;95491;-72
2022/10/05 02:09:32;;;;;;;10.38;7.90;;;16.90;99.90;;;;;;4971266;28;95656;-72
2022/10/05 02:12:10;;;;;;;11.93;8.40;;;16.90;99.90;;;;;;4971134;28;92523;-72
2022/10/05 02:14:43;;;;;;;9.00;7.68;;;17.00;99.90;;;;;;4970959;28;92531;-72
2022/10/05 02:17:16;;;;;;;11.27;9.38;;;16.90;99.90;;;;;;4938549;28;96082;-72
2022/10/05 02:19:56;;;;;;;9.35;7.72;;;16.90;99.90;;;;;;4954791;28;95405;-72
2022/10/05 02:22:38;;;;;;;9.65;8.07;;;16.90;99.90;;;;;;4970988;28;92467;-72
2022/10/05 02:25:12;;;;;;;10.32;8.20;;;16.90;99.90;;;;;;4970988;28;92450;-72
2022/10/05 02:27:53;;;;;;;11.53;9.60;;;16.90;99.90;;;;;;4968919;28;97531;-72
2022/10/05 02:30:20;;;;;;;10.63;9.52;;;16.90;99.90;;;;;;4954299;28;98032;-72
2022/10/05 02:32:58;;;;;;;10.40;9.10;;;16.80;99.90;;;;;;4938277;28;92519;-72
2022/10/05 02:35:26;;;;;;;10.05;8.02;;;16.90;99.90;;;;;;4938220;28;92515;-72
2022/10/05 02:38:14;;;;;;;11.18;8.48;;;16.90;99.90;;;;;;4954125;28;95759;-72
2022/10/05 02:40:59;;;;;;;13.25;9.00;;;16.90;99.90;;;;;;4957636;28;95419;-72
2022/10/05 02:43:38;;;;;;;9.52;8.52;;;16.90;99.90;;;;;;4959123;28;92711;-72
2022/10/05 02:46:26;;;;;;;9.48;8.18;;;16.90;99.90;;;;;;4958214;28;91751;-72
2022/10/05 02:49:12;;;;;;;8.75;7.85;;;16.80;99.90;;;;;;4973941;28;95712;-72
2022/10/05 02:52:01;;;;;;;9.90;7.93;;;16.90;99.90;;;;;;4973802;28;95324;-72
2022/10/05 02:55:09;;;;;;;9.82;7.50;;;16.90;99.90;;;;;;4957995;28;94785;-72
2022/10/05 02:57:51;;;;;;;8.27;6.43;;;16.90;99.90;;;;;;4973852;28;92599;-72
2022/10/05 03:00:23;;;;;;;10.43;7.07;;;16.80;99.90;;;;;;4957581;28;95432;-72
2022/10/05 03:03:09;;;;;;;7.80;6.90;;;16.70;99.90;;;;;;4957295;28;95377;-72
2022/10/05 03:05:42;;;;;;;10.38;7.78;;;16.70;99.90;;;;;;4941459;28;92416;-72
2022/10/05 03:08:24;;;;;;;10.93;6.80;;;16.80;99.90;;;;;;4957415;28;92465;-72
2022/10/05 03:11:06;;;;;;;8.45;6.65;;;16.70;99.90;;;;;;4973474;28;95530;-72
2022/10/05 03:14:17;;;;;;;8.40;7.70;;;16.80;99.90;;;;;;4974112;28;95393;-72
2022/10/05 03:17:07;;;;;;;9.52;6.60;;;16.90;99.90;;;;;;4927746;28;92537;-72
2022/10/05 03:19:43;;;;;;;9.23;6.93;;;16.80;99.90;;;;;;4958848;28;92539;-72
2022/10/05 03:22:50;;;;;;;9.55;7.50;;;16.80;99.90;;;;;;4939846;28;98331;-72
2022/10/05 03:25:36;;;;;;;11.88;7.90;;;16.80;99.90;;;;;;4940930;28;98044;-72
2022/10/05 03:28:14;;;;;;;7.65;6.85;;;16.80;99.90;;;;;;4958202;28;92490;-72
2022/10/05 03:30:58;;;;;;;9.68;7.30;;;16.80;99.90;;;;;;4956909;28;92431;-72
2022/10/05 03:33:46;;;;;;;7.90;6.78;;;16.80;99.90;;;;;;4940788;28;95481;-72
2022/10/05 03:36:36;;;;;;;8.60;6.40;;;16.80;99.90;;;;;;4957148;28;95370;-72
2022/10/05 03:39:26;;;;;;;7.43;6.63;;;16.80;99.90;;;;;;4973226;28;92636;-72
2022/10/05 03:42:21;;;;;;;6.75;6.15;;;16.80;99.90;;;;;;4957204;28;91893;-72
2022/10/05 03:45:20;;;;;;;9.25;6.45;;;16.80;99.90;;;;;;4948495;28;95879;-72
2022/10/05 03:48:07;;;;;;;7.28;6.05;;;16.80;99.90;;;;;;4940251;28;95762;-72
2022/10/05 03:50:43;;;;;;;9.90;6.95;;;16.80;99.90;;;;;;4971892;28;94994;-72
2022/10/05 03:53:18;;;;;;;7.10;6.40;;;16.80;99.90;;;;;;4956871;28;92505;-72
2022/10/05 03:55:49;;;;;;;11.48;8.52;;;16.90;99.90;;;;;;4972931;28;95731;-72
2022/10/05 03:58:26;;;;;;;8.60;6.88;;;16.80;99.90;;;;;;4972826;28;95290;-72
2022/10/05 04:01:00;;;;;;;7.82;6.72;;;16.90;99.90;;;;;;4972972;28;92533;-72
2022/10/05 04:03:49;;;;;;;7.47;6.75;;;16.90;99.90;;;;;;4940530;28;93057;-72
2022/10/05 04:06:33;;;;;;;9.25;7.35;;;16.90;99.90;;;;;;4972692;28;95720;-72
2022/10/05 04:09:09;;;;;;;8.07;6.80;;;16.80;99.90;;;;;;4956683;28;95435;-72
2022/10/05 04:12:04;;;;;;;9.70;8.25;;;16.70;99.90;;;;;;4972875;28;92442;-72
2022/10/05 04:14:37;;;;;;;8.95;7.15;;;16.70;99.90;;;;;;4956584;28;92876;-72
2022/10/05 04:17:12;;;;;;;8.57;7.18;;;16.70;99.90;;;;;;4971187;28;98427;-72
2022/10/05 04:20:03;;;;;;;9.43;8.45;;;16.60;99.90;;;;;;4956273;28;96355;-72
2022/10/05 04:22:36;;;;;;;11.20;8.73;;;16.60;99.90;;;;;;4956445;28;92473;-72
2022/10/05 04:25:06;;;;;;;8.85;7.55;;;16.50;99.90;;;;;;4972383;28;92391;-72
2022/10/05 04:27:40;;;;;;;10.07;7.57;;;16.50;99.90;;;;;;4939382;28;95817;-72
2022/10/05 04:30:15;;;;;;;11.70;8.93;;;16.50;99.90;;;;;;4972115;28;95894;-72
2022/10/05 04:32:48;;;;;;;10.68;7.70;;;16.60;99.90;;;;;;4956351;28;92552;-72
2022/10/05 04:35:45;;;;;;;8.00;7.20;;;16.60;99.90;;;;;;4972814;28;92377;-72
2022/10/05 04:38:43;;;;;;;9.90;6.97;;;16.60;99.90;;;;;;4955814;28;95631;-72
2022/10/05 04:41:56;;;;;;;9.93;8.52;;;16.60;99.90;;;;;;4939539;28;95317;-72
2022/10/05 04:44:42;;;;;;;10.25;8.20;;;16.60;99.90;;;;;;4965534;28;95546;-72
2022/10/05 04:47:18;;;;;;;11.40;8.05;;;16.50;99.90;;;;;;4939820;28;92545;-72
2022/10/05 04:49:51;;;;;;;11.52;8.98;;;16.40;99.90;;;;;;4955976;28;95656;-72
2022/10/05 04:52:27;;;;;;;10.68;9.57;;;16.50;99.90;;;;;;4955685;28;95471;-72
2022/10/05 04:55:02;;;;;;;12.05;9.98;;;16.40;99.90;;;;;;4955893;28;92559;-72
2022/10/05 04:57:35;;;;;;;10.98;8.80;;;16.40;99.90;;;;;;4955210;28;92537;-72
2022/10/05 05:00:18;;;;;;;11.10;8.60;;;16.50;99.90;;;;;;4955278;28;95858;-72
2022/10/05 05:02:55;;;;;;;10.75;8.88;;;16.50;99.90;;;;;;4939278;28;95518;-72
2022/10/05 05:05:44;;;;;;;11.60;9.95;;;16.40;99.90;;;;;;4957004;28;92494;-72
2022/10/05 05:09:10;;;;;;;11.50;9.10;;;16.50;99.90;;;;;;4972002;28;93334;-72
2022/10/05 05:12:18;;;;;;;11.82;8.95;;;16.50;99.90;;;;;;4954345;28;95634;-72
2022/10/05 05:15:24;;;;;;;10.85;9.57;;;16.40;99.90;;;;;;4939061;28;97865;-72
2022/10/05 05:18:28;;;;;;;10.60;8.52;;;16.40;99.90;;;;;;4955034;28;93107;-72
2022/10/05 05:21:17;;;;;;;11.50;9.00;;;16.30;99.90;;;;;;4955108;28;92502;-72
2022/10/05 05:23:50;;;;;;;12.60;10.20;;;16.30;99.90;;;;;;4955063;28;95712;-72
2022/10/05 05:26:37;;;;;;;10.83;9.80;;;16.30;99.90;;;;;;4954157;28;95363;-72
2022/10/05 05:29:35;;;;;;;12.07;10.45;;;16.30;99.90;;;;;;4955087;28;92531;-72
2022/10/05 05:32:19;;;;;;;13.15;10.15;;;16.30;99.90;;;;;;4955207;28;91712;-72
2022/10/05 05:34:53;;;;;;;14.05;11.15;;;16.30;99.90;;;;;;4970682;28;96505;-72
2022/10/05 05:37:47;;;;;;;12.38;10.70;;;16.20;99.90;;;;;;4970768;28;95367;-72
2022/10/05 05:40:26;;;;;;;12.80;10.40;;;16.20;99.90;;;;;;4953139;28;95021;-72
2022/10/05 05:43:30;;;;;;;11.13;9.98;;;16.20;99.90;;;;;;4970838;28;93050;-72
2022/10/05 05:46:00;;;;;;;14.82;10.43;;;16.30;99.90;;;;;;4921469;28;95470;-72
2022/10/05 05:48:43;;;;;;;17.23;11.52;;;16.20;99.90;;;;;;4970486;28;95783;-72
2022/10/05 05:51:23;;;;;;;13.95;10.73;;;16.20;99.90;;;;;;4970496;28;92477;-72
2022/10/05 05:53:57;;;;;;;12.68;10.13;;;16.20;99.90;;;;;;4970768;28;92534;-72
2022/10/05 05:56:31;;;;;;;11.07;10.02;;;16.20;99.90;;;;;;4938241;28;95781;-72
2022/10/05 05:59:16;;;;;;;11.25;10.25;;;16.20;99.90;;;;;;4971089;28;95301;-72
2022/10/05 06:01:52;;;;;;;15.45;10.80;;;16.20;99.90;;;;;;4954505;28;92618;-72
2022/10/05 06:04:34;;;;;;;13.32;10.70;;;16.30;99.90;;;;;;4954239;28;92887;-72
2022/10/05 06:07:04;;;;;;;11.88;10.70;;;16.30;99.90;;;;;;4952778;28;98558;-72
2022/10/05 06:09:39;;;;;;;12.07;10.77;;;16.20;99.90;;;;;;4970330;28;98005;-72
2022/10/05 06:12:38;;;;;;;12.75;11.23;;;16.30;99.90;;;;;;4970408;28;92477;-72
2022/10/05 06:15:23;;;;;;;14.93;11.25;;;16.30;99.90;;;;;;4973543;28;92527;-72
2022/10/05 06:17:55;;;;;;;11.98;10.73;;;16.30;99.90;;;;;;4957439;28;95660;-72
2022/10/05 06:20:42;;;;;;;14.23;11.68;;;16.30;99.90;;;;;;4957551;28;95495;-72
2022/10/05 06:23:18;;;;;;;14.38;10.93;;;16.40;99.90;;;;;;4941109;28;92498;-72
2022/10/05 06:25:48;;;;;;;13.88;10.88;;;16.30;99.90;;;;;;4974340;28;91827;-72
2022/10/05 06:28:15;;;;;;;11.77;9.80;;;16.30;99.90;;;;;;4958294;28;93121;-72
2022/10/05 06:31:07;;;;;;;12.98;10.80;;;16.40;99.90;;;;;;4957969;28;94997;-72
2022/10/05 06:34:18;;;;;;;12.40;11.15;;;16.30;99.90;;;;;;4940364;28;94928;-72
2022/10/05 06:36:51;;;;;;;12.23;10.93;;;16.40;99.90;;;;;;4917515;28;92591;-72
2022/10/05 06:39:46;;;;;;;12.68;11.30;;;16.40;99.90;;;;;;4901076;28;95106;-72
2022/10/05 06:42:22;;;;;;;14.63;11.80;;;16.40;99.90;;;;;;4945131;28;95485;-72
2022/10/05 06:45:23;;;;;;;12.55;11.25;;;16.50;99.90;;;;;;4957929;28;92570;-72
2022/10/05 06:48:24;;;;;;;12.73;10.98;;;16.50;99.90;;;;;;4957144;28;92485;-72
2022/10/05 06:51:29;;;;;;;13.15;11.13;;;16.50;99.90;;;;;;4955815;28;93839;-72
2022/10/05 06:54:28;;;;;;;12.18;10.85;;;16.50;99.90;;;;;;4942475;28;95004;-72
2022/10/05 06:57:40;;;;;;;12.43;10.35;;;16.60;99.90;;;;;;4957133;28;92578;-72
2022/10/05 07:00:28;;;;;;;16.13;12.48;;;16.70;99.90;;;;;;4921585;28;92536;-72
2022/10/05 07:03:26;;;;;;;11.80;10.65;;;16.70;99.90;;;;;;4971786;28;98283;-72
2022/10/05 07:06:13;;;;;;;12.77;11.57;;;16.80;99.90;;;;;;4956737;28;98328;-72
2022/10/05 07:08:58;;;;;;;11.90;10.70;;;16.80;99.90;;;;;;4946553;28;92971;-72
2022/10/05 07:11:39;;;;;;;11.35;10.20;;;16.90;99.90;;;;;;4958081;28;92433;-72
2022/10/05 07:14:16;;;;;;;12.75;10.60;;;16.90;99.90;;;;;;4956799;28;95507;-72
2022/10/05 07:16:54;;;;;;;11.95;10.30;;;16.90;99.90;;;;;;4972722;28;95818;-72
2022/10/05 07:19:33;;;;;;;12.00;10.88;;;17.00;99.90;;;;;;4957972;28;92507;-72
2022/10/05 07:22:25;;;;;;;12.48;11.18;;;17.00;99.90;;;;;;4973323;28;91769;-72
2022/10/05 07:25:14;;;;;;;13.57;11.07;;;17.00;99.90;;;;;;4955845;28;95444;-72
2022/10/05 07:28:07;;;;;;;12.80;11.55;;;16.90;99.90;;;;;;4956469;28;95353;-72
2022/10/05 07:30:45;;;;;;;13.23;11.43;;;17.00;99.90;;;;;;4935894;28;94951;-72
2022/10/05 07:33:19;;;;;;;12.50;11.18;;;17.00;99.90;;;;;;4956539;28;92471;-72
2022/10/05 07:39:04;;;;;;;12.38;11.25;;;17.10;99.90;;;;;;4972690;28;95725;-72
2022/10/05 07:41:49;;;;;;;10.93;9.43;;;17.20;99.90;;;;;;4956119;28;92510;-72
2022/10/05 07:44:29;;;;;;;10.70;9.70;;;17.10;99.90;;;;;;4957052;28;92481;-72
2022/10/05 07:47:03;;;;;;;11.95;10.40;;;17.20;99.90;;;;;;4956661;28;95613;-72
2022/10/05 07:49:47;;;;;;;11.18;9.60;;;17.20;99.90;;;;;;4972822;28;95438;-72
2022/10/05 07:52:26;;;;;;;;;;;17.30;99.90;;;;;;4957040;28;92577;-72
2022/10/05 07:55:33;;;;;;;10.52;9.40;;;17.30;99.90;;;;;;4974190;28;92510;-72
2022/10/05 07:58:21;;;;;;;10.90;9.13;;;17.40;99.90;;;;;;4939132;28;97864;-72
2022/10/05 08:01:13;;;;;;;12.20;9.27;;;17.50;99.90;;;;;;4956364;28;97660;-72
2022/10/05 08:03:46;;;;;;;9.98;8.98;;;17.60;99.90;;;;;;4973007;28;92671;-72
2022/10/05 08:06:39;;;;;;;10.95;9.63;;;17.60;99.90;;;;;;4957885;28;92493;-72
2022/10/05 08:09:23;;;;;;;10.70;9.60;;;17.70;99.90;;;;;;4957656;28;93154;-72
2022/10/05 08:12:07;;;;;;;11.73;10.68;;;17.70;99.90;;;;;;4957568;28;92885;-72
2022/10/05 08:14:34;;;;;;;10.68;9.48;;;17.70;99.90;;;;;;4957310;28;92452;-72
2022/10/05 08:17:08;;;;;;;10.63;8.70;;;17.70;99.90;;;;;;4958206;28;91748;-72
2022/10/05 08:19:45;;;;;;;11.02;9.30;;;17.70;99.90;;;;;;4957563;28;93231;-72
2022/10/05 08:22:22;;;;;;;10.90;9.80;;;17.80;99.90;;;;;;4957759;28;93078;-72
2022/10/05 08:25:00;;;;;;;11.25;9.48;;;17.80;99.90;;;;;;4971559;28;94921;-72
2022/10/05 08:27:41;;;;;;;14.52;8.63;;;18.00;99.90;;;;;;4956072;28;92810;-72
2022/10/05 08:30:11;;;;;;;11.90;9.15;;;18.10;99.90;;;;;;4956063;28;95752;-72
2022/10/05 08:32:46;;;;;;;9.85;8.80;;;18.20;99.90;;;;;;4972194;28;95704;-72
2022/10/05 08:35:36;;;;;;;60.17;13.35;;;18.30;99.90;;;;;;4956326;28;92600;-72
2022/10/05 08:38:21;;;;;;;8.73;7.82;;;18.50;99.90;;;;;;4956582;28;92426;-73
2022/10/05 08:41:22;;;;;;;14.48;8.02;;;18.50;99.90;;;;;;4972237;28;95814;-73
2022/10/05 08:44:33;;;;;;;11.30;8.18;;;18.60;99.90;;;;;;4957832;28;92321;-72
2022/10/05 08:47:20;;;;;;;23.40;9.57;;;18.60;99.90;;;;;;4947047;28;92518;-73
2022/10/05 08:50:09;;;;;;;12.35;8.38;;;18.70;99.90;;;;;;4956378;28;92392;-72
2022/10/05 08:53:13;;;;;;;8.10;7.30;;;18.90;99.90;;;;;;4955591;28;95919;-72
2022/10/05 08:55:59;;;;;;;33.72;10.90;;;19.00;99.90;;;;;;4956829;28;95404;-72
2022/10/05 08:58:35;;;;;;;8.75;7.68;;;19.10;99.90;;;;;;4955696;28;92473;-73
2022/10/05 09:01:39;;;;;;;9.27;7.32;;;19.10;99.90;;;;;;4957065;28;92956;-72
2022/10/05 09:04:34;;;;;;;7.78;7.07;;;19.20;99.90;;;;;;4955811;28;93198;-72
2022/10/05 09:07:12;;;;;;;15.50;8.73;;;19.30;99.90;;;;;;4955808;28;93081;-72
2022/10/05 09:10:12;;;;;;;17.80;7.97;;;19.30;99.90;;;;;;4957230;28;93184;-72
2022/10/05 09:13:06;;;;;;;7.40;6.88;;;19.40;99.90;;;;;;4957112;28;92039;-72
2022/10/05 09:15:57;;;;;;;9.10;8.02;;;19.30;99.90;;;;;;4935514;28;93789;-72
2022/10/05 09:18:46;;;;;;;8.15;6.68;;;19.40;99.90;;;;;;4956801;28;93015;-72
2022/10/05 09:21:40;;;;;;;8.77;7.25;;;19.60;99.90;;;;;;4954582;28;94845;-72
2022/10/05 09:24:13;;;;;;;10.40;7.40;;;19.60;99.90;;;;;;4939296;28;92487;-72
2022/10/05 09:26:47;;;;;;;6.78;6.18;;;19.60;99.90;;;;;;4955914;28;92460;-72
2022/10/05 09:29:23;;;;;;;7.00;6.35;;;19.60;99.90;;;;;;4956786;28;92918;-73
2022/10/05 09:32:26;;;;;;;7.72;7.07;;;19.70;99.70;;;;;;4956524;28;92380;-72
2022/10/05 09:35:12;;;;;;;7.53;6.75;;;19.80;99.40;;;;;;4939165;28;92472;-72
2022/10/05 09:38:01;;;;;;;6.50;5.90;;;19.80;99.70;;;;;;4938499;28;96077;-72
2022/10/05 09:40:51;;;;;;;7.53;6.82;;;19.90;99.40;;;;;;4956456;28;93007;-72
2022/10/05 09:43:30;;;;;;;6.72;5.70;;;20.00;99.30;;;;;;4956695;28;92919;-72
2022/10/05 09:46:03;;;;;;;6.15;5.65;;;20.00;99.10;;;;;;4955054;28;92579;-72
2022/10/05 09:48:42;;;;;;;6.00;5.50;;;20.00;99.10;;;;;;4954796;28;95617;-72
2022/10/05 09:51:30;;;;;;;52.42;12.10;;;20.10;99.20;;;;;;4956147;28;95564;-72
2022/10/05 09:54:07;;;;;;;5.97;5.47;;;20.20;99.00;;;;;;4954445;28;92593;-72
2022/10/05 09:57:03;;;;;;;54.03;11.65;;;20.20;99.00;;;;;;4955023;28;92397;-72
2022/10/05 09:59:44;;;;;;;5.57;5.18;;;20.20;98.40;;;;;;4955439;28;94201;-72
2022/10/05 10:02:17;;;;;;;6.45;5.13;;;20.20;98.70;;;;;;4956245;28;93018;-72
2022/10/05 10:05:12;;;;;;;5.55;5.05;;;20.10;98.70;;;;;;4956200;28;92440;-72
2022/10/05 10:08:03;;;;;;;5.57;4.93;;;20.20;98.40;;;;;;4956552;28;91706;-73
2022/10/05 10:10:33;;;;;;;6.95;4.65;;;20.20;98.80;;;;;;4971064;28;95674;-72
2022/10/05 10:13:12;;;;;;;5.85;5.10;;;20.20;98.70;;;;;;4954565;28;93158;-72
2022/10/05 10:16:12;;;;;;;5.43;4.93;;;20.20;98.40;;;;;;4953345;28;94954;-72
2022/10/05 10:19:16;;;;;;;6.03;5.47;;;20.30;98.00;;;;;;4954419;28;92546;-73
2022/10/05 10:22:04;;;;;;;5.18;4.70;;;20.20;98.10;;;;;;4955911;28;94595;-73
2022/10/05 10:24:47;;;;;;;6.75;6.13;;;20.10;98.20;;;;;;4955928;28;93007;-73
2022/10/05 10:27:19;;;;;;;6.00;5.60;;;20.20;98.30;;;;;;4954183;28;92526;-73
2022/10/05 10:30:02;;;;;;;8.23;5.45;;;20.10;98.40;;;;;;4956149;28;93012;-73
2022/10/05 10:32:32;;;;;;;6.13;5.63;;;20.10;98.30;;;;;;4955955;28;93166;-73
2022/10/05 10:35:21;;;;;;;7.50;6.93;;;20.00;98.40;;;;;;4954722;28;93042;-73
2022/10/05 10:38:22;;;;;;;5.80;5.30;;;20.10;98.10;;;;;;4954296;28;92605;-73
2022/10/05 10:41:23;;;;;;;5.70;5.13;;;20.00;98.10;;;;;;4938194;28;92508;-73
2022/10/05 10:44:22;;;;;;;5.82;5.25;;;20.00;98.30;;;;;;4952811;28;98123;-73
2022/10/05 10:47:08;;;;;;;7.80;6.35;;;20.10;98.20;;;;;;4955310;28;95525;-73
2022/10/05 10:50:12;;;;;;;6.07;5.50;;;20.00;98.30;;;;;;4954592;28;92669;-73
2022/10/05 10:53:16;;;;;;;5.43;4.90;;;20.20;97.80;;;;;;4955415;28;92494;-73
2022/10/05 10:56:09;;;;;;;5.75;5.10;;;20.20;97.90;;;;;;4970032;28;96156;-73
2022/10/05 10:58:54;;;;;;;7.70;6.97;;;20.10;97.60;;;;;;4954196;28;95648;-73
2022/10/05 11:01:35;;;;;;;5.32;4.93;;;20.10;97.90;;;;;;4941365;28;92462;-73
2022/10/05 11:04:51;;;;;;;7.28;6.68;;;20.20;97.80;;;;;;4958213;28;92277;-73
2022/10/05 11:07:43;;;;;;;7.18;6.65;;;20.30;97.60;;;;;;4939175;28;93231;-73
2022/10/05 11:10:41;;;;;;;6.70;6.07;;;20.30;97.60;;;;;;4956982;28;95518;-73
2022/10/05 11:13:11;;;;;;;7.65;5.07;;;20.40;97.50;;;;;;4940193;28;94864;-73
2022/10/05 11:15:56;;;;;;;4.90;4.60;;;20.40;97.50;;;;;;4958591;28;92436;-73
2022/10/05 11:18:42;;;;;;;5.82;5.43;;;20.40;97.30;;;;;;4973541;28;95668;-73
2022/10/05 11:21:37;;;;;;;5.68;5.38;;;20.50;97.50;;;;;;4958678;28;93094;-73
2022/10/05 11:24:42;;;;;;;5.20;4.70;;;20.70;97.10;;;;;;4957303;28;92452;-73
2022/10/05 11:27:28;;;;;;;5.38;5.00;;;20.70;96.80;;;;;;4958148;28;93033;-73
2022/10/05 11:30:13;;;;;;;6.47;5.97;;;20.50;96.80;;;;;;4958472;28;93317;-73
2022/10/05 11:33:05;;;;;;;6.13;4.00;;;20.60;96.90;;;;;;4940904;28;95514;-73
2022/10/05 11:35:58;;;;;;;6.40;6.00;;;20.70;96.60;;;;;;4958447;28;92879;-73
2022/10/05 11:38:44;;;;;;;4.45;4.05;;;20.80;96.60;;;;;;4958410;28;92368;-73
2022/10/05 11:41:40;;;;;;;4.32;3.83;;;20.80;96.40;;;;;;4957024;28;95604;-73
2022/10/05 11:44:58;;;;;;;4.75;4.22;;;20.90;96.50;;;;;;4972883;28;98181;-73
2022/10/05 11:47:41;;;;;;;4.13;3.72;;;20.90;96.20;;;;;;4917282;28;93050;-73
2022/10/05 11:50:46;;;;;;;4.95;4.35;;;20.90;96.30;;;;;;4952024;28;92486;-73
2022/10/05 11:53:37;;;;;;;4.63;4.32;;;20.90;96.20;;;;;;4935500;28;93243;-73
2022/10/05 11:56:18;;;;;;;3.42;3.13;;;20.90;96.50;;;;;;4956505;28;93782;-73
2022/10/05 11:58:48;;;;;;;4.75;4.35;;;20.90;96.20;;;;;;4957025;28;92559;-73
2022/10/05 12:01:27;;;;;;;3.38;3.17;;;20.90;96.20;;;;;;4940722;28;91752;-73
2022/10/05 12:04:03;;;;;;;6.32;3.38;;;21.00;96.00;;;;;;4956611;28;93187;-73
2022/10/05 12:06:44;;;;;;;4.13;3.47;;;20.90;96.20;;;;;;4956597;28;93140;-73
2022/10/05 12:09:26;;;;;;;4.85;3.80;;;20.90;96.30;;;;;;4956688;28;94844;-73
2022/10/05 12:11:57;;;;;;;4.82;4.35;;;21.00;96.10;;;;;;4957993;28;92495;-73
2022/10/05 12:14:33;;;;;;;5.47;4.93;;;21.00;96.40;;;;;;4957839;28;92849;-73
2022/10/05 12:17:23;;;;;;;4.90;4.60;;;20.90;96.40;;;;;;4957200;28;95409;-73
2022/10/05 12:19:58;;;;;;;5.45;4.30;;;20.90;96.40;;;;;;4956225;28;92486;-74
2022/10/05 12:22:33;;;;;;;4.57;4.22;;;20.70;96.60;;;;;;4958088;28;92437;-74
2022/10/05 12:25:06;;;;;;;4.80;3.60;;;20.70;96.60;;;;;;4957532;28;93223;-74
2022/10/05 12:27:38;;;;;;;5.33;4.40;;;20.60;96.90;;;;;;4956425;28;95481;-73
2022/10/05 12:30:14;;;;;;;4.68;4.28;;;20.60;96.90;;;;;;4957708;28;93717;-73
2022/10/05 12:32:55;;;;;;;4.00;3.70;;;20.60;96.90;;;;;;4956545;28;92519;-73
2022/10/05 12:35:41;;;;;;;5.25;4.43;;;20.60;97.00;;;;;;4939280;28;96670;-73
2022/10/05 12:38:27;;;;;;;5.53;3.95;;;20.50;97.10;;;;;;4956035;28;95582;-73
2022/10/05 12:41:04;;;;;;;7.10;4.20;;;20.50;97.20;;;;;;4957481;28;92416;-74
2022/10/05 12:43:39;;;;;;;64.82;10.70;;;20.60;97.30;;;;;;4957514;28;92460;-73
2022/10/05 12:46:54;;;;;;;15.10;5.63;;;20.50;97.30;;;;;;4955190;28;93128;-73
2022/10/05 12:49:27;;;;;;;4.82;4.45;;;20.60;97.70;;;;;;4899699;28;96966;-73
2022/10/05 12:51:59;;;;;;;7.07;4.13;;;20.40;97.60;;;;;;4950777;28;92351;-73
2022/10/05 12:54:53;;;;;;;5.43;4.93;;;20.50;97.60;;;;;;4972567;28;91760;-73
2022/10/05 12:57:45;;;;;;;8.97;3.90;;;20.50;97.50;;;;;;4956063;28;93335;-73
2022/10/05 13:00:16;;;;;;;4.00;3.70;;;20.50;97.70;;;;;;4956942;28;93053;-73
2022/10/05 13:02:49;;;;;;;4.97;3.47;;;20.50;97.80;;;;;;4955831;28;94917;-73
2022/10/05 13:05:43;;;;;;;4.97;3.90;;;20.40;97.80;;;;;;4955316;28;92541;-73
2022/10/05 13:08:32;;;;;;;5.65;5.25;;;20.50;97.60;;;;;;4955800;28;93305;-73
2022/10/05 13:11:16;;;;;;;6.45;4.65;;;20.40;97.50;;;;;;4955580;28;93022;-73
2022/10/05 13:13:54;;;;;;;4.80;4.45;;;20.40;97.70;;;;;;4957024;28;92400;-73
2022/10/05 13:16:44;;;;;;;5.35;3.85;;;20.50;98.20;;;;;;4955709;28;92521;-73
2022/10/05 13:19:39;;;;;;;4.57;4.25;;;20.50;97.90;;;;;;4955333;28;93192;-74
2022/10/05 13:22:26;;;;;;;4.97;4.47;;;20.50;97.70;;;;;;4956607;28;92799;-73
2022/10/05 13:25:01;;;;;;;4.72;4.28;;;20.60;97.80;;;;;;4956891;28;92368;-74
2022/10/05 13:27:32;;;;;;;5.78;4.45;;;20.70;97.80;;;;;;4956171;28;92479;-74
2022/10/05 13:30:15;;;;;;;6.10;4.22;;;20.70;97.60;;;;;;4953495;28;98379;-74
2022/10/05 13:32:55;;;;;;;6.77;4.20;;;20.70;97.50;;;;;;4971182;28;97848;-73
2022/10/05 13:35:22;;;;;;;4.05;3.55;;;20.70;97.50;;;;;;4956624;28;92367;-73
2022/10/05 13:38:11;;;;;;;4.32;4.00;;;20.70;97.50;;;;;;4955227;28;92618;-73
2022/10/05 13:40:53;;;;;;;4.50;3.45;;;20.90;97.40;;;;;;4956631;28;93272;-73
2022/10/05 13:43:50;;;;;;;4.43;3.20;;;20.90;97.60;;;;;;4956333;28;93047;-73
2022/10/05 13:46:42;;;;;;;4.70;4.05;;;21.00;97.30;;;;;;4956538;28;92464;-73
2022/10/05 13:49:37;;;;;;;5.05;3.80;;;21.00;97.20;;;;;;4955274;28;91795;-73
2022/10/05 13:52:07;;;;;;;4.72;3.67;;;21.00;96.90;;;;;;4956259;28;93189;-73
2022/10/05 13:54:51;;;;;;;5.28;2.92;;;21.00;97.20;;;;;;4956242;28;92982;-73
2022/10/05 13:57:33;;;;;;;3.42;3.10;;;21.10;97.00;;;;;;4953861;28;94969;-73
2022/10/05 14:00:12;;;;;;;3.38;3.08;;;21.10;96.80;;;;;;4954838;28;93202;-73
2022/10/05 14:02:43;;;;;;;4.38;3.13;;;21.10;96.80;;;;;;4955314;28;92796;-73
2022/10/05 14:05:28;;;;;;;3.80;3.40;;;21.10;96.80;;;;;;4955905;28;92510;-73
2022/10/05 14:08:01;;;;;;;5.72;4.40;;;21.20;96.80;;;;;;4956245;28;92580;-74
2022/10/05 14:10:38;;;;;;;4.63;4.18;;;21.10;96.90;;;;;;4956133;28;92378;-73
2022/10/05 14:13:42;;;;;;;3.85;3.03;;;21.10;96.60;;;;;;4956052;28;93930;-74